createdAt,value
2022-12-20T00:00:10.344Z,101064.91
2022-12-20T00:00:31.980Z,101073.25
2022-12-20T00:00:53.725Z,101070.34
2022-12-20T00:01:18.798Z,101068.59
2022-12-20T00:01:40.609Z,101075.53
2022-12-20T00:02:02.455Z,101071.84
2022-12-20T00:02:24.532Z,101071.06
2022-12-20T00:02:47.287Z,101071.13
2022-12-20T00:03:09.106Z,101070.06
2022-12-20T00:03:30.721Z,101067.28
2022-12-20T00:03:54.291Z,101068.03
2022-12-20T00:04:16.984Z,101081.38
2022-12-20T00:04:38.647Z,101064.44
2022-12-20T00:05:00.267Z,101069.88
2022-12-20T00:05:21.946Z,101066.38
2022-12-20T00:05:44.007Z,101068.75
2022-12-20T00:06:06.993Z,101073.22
2022-12-20T00:06:29.171Z,101070.25
2022-12-20T00:06:50.790Z,101059.19
2022-12-20T00:07:12.473Z,101071.81
2022-12-20T00:07:35.129Z,101072.59
2022-12-20T00:07:56.757Z,101078.81
2022-12-20T00:08:18.432Z,101066.22
2022-12-20T00:08:40.625Z,101073.00
2022-12-20T00:09:07.409Z,101069.19
2022-12-20T00:09:29.001Z,101061.75
2022-12-20T00:09:52.030Z,101059.09
2022-12-20T00:10:13.785Z,101055.72
2022-12-20T00:10:36.950Z,101063.50
2022-12-20T00:11:00.299Z,101062.34
2022-12-20T00:11:22.051Z,101059.53
2022-12-20T00:11:43.788Z,101069.16
2022-12-20T00:12:06.696Z,101058.38
2022-12-20T00:12:28.369Z,101066.28
2022-12-20T00:12:50.044Z,101067.25
2022-12-20T00:13:13.061Z,101068.03
2022-12-20T00:13:35.066Z,101064.47
2022-12-20T00:13:57.866Z,101060.19
2022-12-20T00:14:19.817Z,101055.84
2022-12-20T00:14:41.614Z,101063.72
2022-12-20T00:15:03.516Z,101055.69
2022-12-20T00:15:26.185Z,101065.66
2022-12-20T00:15:47.897Z,101054.09
2022-12-20T00:16:12.198Z,101054.00
2022-12-20T00:16:35.571Z,101059.19
2022-12-20T00:16:58.278Z,101047.69
2022-12-20T00:17:19.927Z,101055.59
2022-12-20T00:17:41.630Z,101055.53
2022-12-20T00:18:04.226Z,101051.03
2022-12-20T00:18:25.855Z,101048.38
2022-12-20T00:18:51.799Z,101054.50
2022-12-20T00:19:13.607Z,101048.31
2022-12-20T00:19:35.352Z,101054.50
2022-12-20T00:19:56.953Z,101048.38
2022-12-20T00:20:19.580Z,101049.25
2022-12-20T00:20:41.307Z,101050.09
2022-12-20T00:21:05.750Z,101049.31
2022-12-20T00:21:28.850Z,101050.25
2022-12-20T00:21:51.464Z,101046.72
2022-12-20T00:22:13.136Z,101045.84
2022-12-20T00:22:34.727Z,101039.69
2022-12-20T00:22:56.642Z,101050.25
2022-12-20T00:23:18.310Z,101051.13
2022-12-20T00:23:41.527Z,101044.09
2022-12-20T00:24:03.979Z,101044.97
2022-12-20T00:24:26.517Z,101039.09
2022-12-20T00:24:49.245Z,101038.00
2022-12-20T00:25:12.189Z,101037.09
2022-12-20T00:25:33.828Z,101041.56
2022-12-20T00:26:01.137Z,101028.19
2022-12-20T00:26:26.370Z,101041.56
2022-12-20T00:26:48.075Z,101037.09
2022-12-20T00:27:09.688Z,101035.41
2022-12-20T00:27:31.377Z,101038.00
2022-12-20T00:27:52.991Z,101037.19
2022-12-20T00:28:15.684Z,101031.84
2022-12-20T00:28:38.246Z,101030.16
2022-12-20T00:29:00.353Z,101029.38
2022-12-20T00:29:22.605Z,101026.78
2022-12-20T00:29:45.420Z,101024.19
2022-12-20T00:30:08.688Z,101032.25
2022-12-20T00:30:30.377Z,101025.28
2022-12-20T00:30:53.973Z,101019.94
2022-12-20T00:31:20.899Z,101019.28
2022-12-20T00:31:42.626Z,101022.97
2022-12-20T00:32:04.515Z,101020.28
2022-12-20T00:32:27.721Z,101022.13
2022-12-20T00:32:49.542Z,101015.91
2022-12-20T00:33:12.101Z,101019.41
2022-12-20T00:33:38.064Z,101019.59
2022-12-20T00:34:00.672Z,101016.13
2022-12-20T00:34:23.344Z,101010.78
2022-12-20T00:34:45.035Z,101002.75
2022-12-20T00:35:07.181Z,101000.22
2022-12-20T00:35:28.831Z,100998.34
2022-12-20T00:35:50.556Z,101001.16
2022-12-20T00:36:13.207Z,101002.03
2022-12-20T00:36:34.875Z,101002.91
2022-12-20T00:36:56.559Z,100998.44
2022-12-20T00:37:18.149Z,100993.09
2022-12-20T00:37:41.182Z,100999.38
2022-12-20T00:38:03.008Z,100999.38
2022-12-20T00:38:25.831Z,100998.53
2022-12-20T00:38:48.545Z,101000.44
2022-12-20T00:39:11.869Z,101000.47
2022-12-20T00:39:33.475Z,101002.28
2022-12-20T00:39:55.234Z,101004.94
2022-12-20T00:40:18.435Z,101012.13
2022-12-20T00:40:41.085Z,101020.22
2022-12-20T00:41:06.598Z,101014.06
2022-12-20T00:41:30.043Z,101020.66
2022-12-20T00:41:53.091Z,101015.16
2022-12-20T00:42:15.559Z,101017.78
2022-12-20T00:42:37.187Z,101024.94
2022-12-20T00:42:59.866Z,101017.75
2022-12-20T00:43:21.977Z,101021.34
2022-12-20T00:43:45.019Z,101021.19
2022-12-20T00:44:06.642Z,101027.47
2022-12-20T00:44:28.665Z,101029.34
2022-12-20T00:44:51.263Z,101027.72
2022-12-20T00:45:12.883Z,101028.50
2022-12-20T00:45:34.640Z,101016.09
2022-12-20T00:45:56.290Z,101029.72
2022-12-20T00:46:19.285Z,101026.22
2022-12-20T00:46:42.076Z,101035.09
2022-12-20T00:47:04.785Z,101029.72
2022-12-20T00:47:26.759Z,101026.91
2022-12-20T00:47:48.431Z,101025.16
2022-12-20T00:48:10.110Z,101031.28
2022-12-20T00:48:33.140Z,101024.09
2022-12-20T00:48:55.748Z,101025.84
2022-12-20T00:49:17.455Z,101026.78
2022-12-20T00:49:39.209Z,101026.91
2022-12-20T00:50:01.864Z,101023.50
2022-12-20T00:50:23.619Z,101038.44
2022-12-20T00:50:45.307Z,101027.09
2022-12-20T00:51:09.440Z,101025.25
2022-12-20T00:51:32.964Z,101027.03
2022-12-20T00:51:54.577Z,101026.91
2022-12-20T00:52:16.169Z,101020.66
2022-12-20T00:52:38.013Z,101028.66
2022-12-20T00:53:00.696Z,101024.19
2022-12-20T00:53:26.305Z,101030.41
2022-12-20T00:53:48.586Z,101023.31
2022-12-20T00:54:10.229Z,101020.69
2022-12-20T00:54:33.444Z,101023.31
2022-12-20T00:54:55.029Z,101030.50
2022-12-20T00:55:18.011Z,101031.38
2022-12-20T00:55:41.453Z,101032.25
2022-12-20T00:56:05.315Z,101034.97
2022-12-20T00:56:28.020Z,101032.38
2022-12-20T00:56:50.704Z,101030.63
2022-12-20T00:57:12.356Z,101027.91
2022-12-20T00:57:34.985Z,101026.16
2022-12-20T00:57:56.598Z,101023.69
2022-12-20T00:58:18.244Z,101031.75
2022-12-20T00:58:41.706Z,101028.19
2022-12-20T00:59:03.469Z,101036.19
2022-12-20T00:59:26.495Z,101044.25
2022-12-20T00:59:48.204Z,101035.38
2022-12-20T01:00:11.449Z,101035.47
2022-12-20T01:00:33.178Z,101041.78
2022-12-20T01:00:56.839Z,101034.78
2022-12-20T01:01:22.633Z,101038.41
2022-12-20T01:01:45.206Z,101042.88
2022-12-20T01:02:07.173Z,101046.41
2022-12-20T01:02:29.236Z,101047.28
2022-12-20T01:02:52.275Z,101049.09
2022-12-20T01:03:14.254Z,101039.38
2022-12-20T01:03:36.500Z,101050.09
2022-12-20T01:03:58.182Z,101050.13
2022-12-20T01:04:20.910Z,101046.59
2022-12-20T01:04:42.578Z,101048.53
2022-12-20T01:05:04.933Z,101055.63
2022-12-20T01:05:26.593Z,101053.06
2022-12-20T01:05:52.973Z,101056.72
2022-12-20T01:06:15.716Z,101052.25
2022-12-20T01:06:37.434Z,101051.50
2022-12-20T01:06:59.066Z,101059.50
2022-12-20T01:07:23.384Z,101055.03
2022-12-20T01:07:45.313Z,101055.97
2022-12-20T01:08:07.225Z,101051.50
2022-12-20T01:08:30.962Z,101053.34
2022-12-20T01:08:53.259Z,101057.06
2022-12-20T01:09:15.834Z,101057.97
2022-12-20T01:09:37.489Z,101055.38
2022-12-20T01:09:59.501Z,101049.22
2022-12-20T01:10:22.612Z,101050.19
2022-12-20T01:10:44.454Z,101041.28
2022-12-20T01:11:09.892Z,101056.41
2022-12-20T01:11:34.227Z,101046.63
2022-12-20T01:11:56.371Z,101043.16
2022-12-20T01:12:18.108Z,101047.53
2022-12-20T01:12:40.727Z,101044.06
2022-12-20T01:13:02.344Z,101050.09
2022-12-20T01:13:24.188Z,101056.22
2022-12-20T01:13:49.481Z,101051.16
2022-12-20T01:14:14.735Z,101048.31
2022-12-20T01:14:36.430Z,101055.31
2022-12-20T01:14:58.077Z,101052.66
2022-12-20T01:15:20.050Z,101056.41
2022-12-20T01:15:41.680Z,101050.09
2022-12-20T01:16:05.480Z,101056.88
2022-12-20T01:16:31.125Z,101053.25
2022-12-20T01:16:52.918Z,101053.00
2022-12-20T01:17:15.368Z,101061.94
2022-12-20T01:17:37.828Z,101052.06
2022-12-20T01:18:00.515Z,101057.34
2022-12-20T01:18:22.375Z,101046.53
2022-12-20T01:18:44.713Z,101054.41
2022-12-20T01:19:07.762Z,101050.03
2022-12-20T01:19:30.360Z,101054.50
2022-12-20T01:19:52.018Z,101048.09
2022-12-20T01:21:01.608Z,101045.41
2022-12-20T01:21:26.353Z,101049.84
2022-12-20T01:21:48.066Z,101040.81
2022-12-20T01:22:09.906Z,101045.25
2022-12-20T01:22:31.547Z,101044.38
2022-12-20T01:22:54.257Z,101042.59
2022-12-20T01:23:15.999Z,101048.72
2022-12-20T01:23:38.121Z,101048.66
2022-12-20T01:23:59.756Z,101039.94
2022-12-20T01:24:21.492Z,101031.97
2022-12-20T01:24:44.091Z,101045.13
2022-12-20T01:25:06.762Z,101033.53
2022-12-20T01:25:30.028Z,101035.28
2022-12-20T01:25:51.688Z,101034.34
2022-12-20T01:26:16.366Z,101036.19
2022-12-20T01:26:39.128Z,101030.00
2022-12-20T01:27:00.820Z,101031.78
2022-12-20T01:27:22.601Z,101034.41
2022-12-20T01:27:44.378Z,101035.81
2022-12-20T01:28:06.262Z,101027.81
2022-12-20T01:28:30.129Z,101031.22
2022-12-20T01:28:54.336Z,101028.50
2022-12-20T01:29:16.155Z,101032.09
2022-12-20T01:29:37.720Z,101031.19
2022-12-20T01:30:00.454Z,101031.97
2022-12-20T01:30:22.152Z,101034.63
2022-12-20T01:30:43.811Z,101031.03
2022-12-20T01:31:06.571Z,101029.38
2022-12-20T01:31:29.580Z,101034.63
2022-12-20T01:32:04.772Z,101025.91
2022-12-20T01:32:26.410Z,101034.72
2022-12-20T01:32:48.059Z,101028.44
2022-12-20T01:33:09.687Z,101034.72
2022-12-20T01:33:32.264Z,101033.84
2022-12-20T01:33:53.907Z,101034.72
2022-12-20T01:34:15.463Z,101028.56
2022-12-20T01:34:38.066Z,101033.06
2022-12-20T01:34:59.790Z,101035.75
2022-12-20T01:35:21.410Z,101032.19
2022-12-20T01:35:43.996Z,101033.16
2022-12-20T01:36:08.169Z,101036.69
2022-12-20T01:36:32.964Z,101037.63
2022-12-20T01:36:54.550Z,101031.47
2022-12-20T01:37:16.224Z,101030.53
2022-12-20T01:37:37.836Z,101030.41
2022-12-20T01:37:59.414Z,101034.03
2022-12-20T01:38:21.041Z,101034.88
2022-12-20T01:38:43.773Z,101037.63
2022-12-20T01:39:08.745Z,101031.34
2022-12-20T01:39:31.377Z,101033.34
2022-12-20T01:39:53.531Z,101035.91
2022-12-20T01:40:16.853Z,101035.03
2022-12-20T01:40:40.302Z,101028.84
2022-12-20T01:41:02.577Z,101036.78
2022-12-20T01:41:25.043Z,101028.00
2022-12-20T01:41:46.782Z,101029.53
2022-12-20T01:42:15.791Z,101020.03
2022-12-20T01:42:38.259Z,101035.88
2022-12-20T01:42:59.875Z,101031.41
2022-12-20T01:43:22.215Z,101038.50
2022-12-20T01:43:48.652Z,101040.38
2022-12-20T01:44:43.960Z,101041.53
2022-12-20T01:45:14.051Z,101031.78
2022-12-20T01:45:35.774Z,101039.59
2022-12-20T01:45:57.495Z,101038.72
2022-12-20T01:46:21.621Z,101049.41
2022-12-20T01:46:45.830Z,101047.78
2022-12-20T01:47:07.821Z,101038.00
2022-12-20T01:47:34.325Z,101040.66
2022-12-20T01:47:57.035Z,101037.88
2022-12-20T01:48:25.379Z,101037.06
2022-12-20T01:48:52.554Z,101034.41
2022-12-20T01:49:20.244Z,101034.50
2022-12-20T01:49:47.076Z,101036.38
2022-12-20T01:50:10.609Z,101037.25
2022-12-20T01:50:32.294Z,101039.78
2022-12-20T01:50:54.100Z,101039.75
2022-12-20T01:51:16.109Z,101037.94
2022-12-20T01:51:44.601Z,101035.19
2022-12-20T01:52:12.020Z,101025.63
2022-12-20T01:52:37.103Z,101033.38
2022-12-20T01:53:00.174Z,101033.25
2022-12-20T01:53:23.745Z,101038.66
2022-12-20T01:53:47.318Z,101028.94
2022-12-20T01:54:15.525Z,101027.91
2022-12-20T01:54:42.768Z,101039.47
2022-12-20T01:55:09.861Z,101043.06
2022-12-20T01:55:33.092Z,101035.13
2022-12-20T01:55:56.500Z,101041.25
2022-12-20T01:56:19.141Z,101036.75
2022-12-20T01:56:43.838Z,101032.50
2022-12-20T01:57:09.156Z,101035.03
2022-12-20T01:57:36.559Z,101035.00
2022-12-20T01:58:03.097Z,101035.88
2022-12-20T01:58:24.814Z,101025.38
2022-12-20T01:58:49.098Z,101025.38
2022-12-20T01:59:12.452Z,101039.59
2022-12-20T01:59:38.283Z,101035.00
2022-12-20T01:59:59.999Z,101034.16
2022-12-20T02:00:21.761Z,101037.66
2022-12-20T02:00:44.554Z,101034.88
2022-12-20T02:01:07.889Z,101042.88
2022-12-20T02:01:29.605Z,101036.75
2022-12-20T02:01:51.636Z,101042.03
2022-12-20T02:02:14.091Z,101040.19
2022-12-20T02:02:37.764Z,101046.31
2022-12-20T02:03:03.993Z,101039.09
2022-12-20T02:03:26.088Z,101038.31
2022-12-20T02:03:49.405Z,101039.09
2022-12-20T02:04:12.044Z,101035.47
2022-12-20T02:04:33.664Z,101037.38
2022-12-20T02:04:55.289Z,101026.75
2022-12-20T02:05:19.406Z,101032.06
2022-12-20T02:05:45.144Z,101036.56
2022-12-20T02:06:19.071Z,101031.28
2022-12-20T02:06:40.704Z,101034.78
2022-12-20T02:07:04.761Z,101035.69
2022-12-20T02:07:30.790Z,101031.22
2022-12-20T02:07:56.395Z,101032.84
2022-12-20T02:08:21.365Z,101027.47
2022-12-20T02:08:44.769Z,101031.00
2022-12-20T02:09:08.429Z,101026.53
2022-12-20T02:09:32.383Z,101033.53
2022-12-20T02:09:57.507Z,101030.03
2022-12-20T02:10:22.904Z,101027.38
2022-12-20T02:11:01.159Z,101035.34
2022-12-20T02:11:43.419Z,101034.53
2022-12-20T02:12:10.614Z,101035.34
2022-12-20T02:12:38.911Z,101034.72
2022-12-20T02:13:08.243Z,101029.31
2022-12-20T02:13:38.818Z,101025.75
2022-12-20T02:14:08.815Z,101023.22
2022-12-20T02:14:49.204Z,101014.28
2022-12-20T02:15:29.408Z,101031.00
2022-12-20T02:15:55.285Z,101023.91
2022-12-20T02:16:23.795Z,101023.00
2022-12-20T02:16:56.816Z,101023.88
2022-12-20T02:17:28.368Z,101012.41
2022-12-20T02:18:01.568Z,101020.44
2022-12-20T02:18:28.910Z,101028.50
2022-12-20T02:18:58.135Z,101019.50
2022-12-20T02:19:35.975Z,101017.44
2022-12-20T02:20:36.686Z,101015.72
2022-12-20T02:21:18.592Z,101018.84
2022-12-20T02:21:46.893Z,101010.06
2022-12-20T02:22:19.224Z,101005.25
2022-12-20T02:22:56.030Z,101007.72
2022-12-20T02:23:46.156Z,101002.25
2022-12-20T02:24:54.272Z,101007.50
2022-12-20T02:25:38.993Z,101004.28
2022-12-20T02:26:18.777Z,101001.19
2022-12-20T02:27:03.916Z,100998.25
2022-12-20T02:27:39.668Z,100993.94
2022-12-20T02:28:06.070Z,101005.56
2022-12-20T02:28:45.487Z,101003.84
2022-12-20T02:29:22.263Z,100996.59
2022-12-20T02:30:01.363Z,100996.53
2022-12-20T02:30:27.682Z,101009.88
2022-12-20T02:30:54.825Z,101004.53
2022-12-20T02:31:21.718Z,101002.81
2022-12-20T02:31:49.961Z,100994.91
2022-12-20T02:32:18.480Z,100994.91
2022-12-20T02:32:46.529Z,101003.84
2022-12-20T02:33:11.756Z,101006.53
2022-12-20T02:33:33.657Z,101000.31
2022-12-20T02:33:58.423Z,100998.50
2022-12-20T02:34:27.126Z,100995.84
2022-12-20T02:34:50.651Z,101002.91
2022-12-20T02:35:14.995Z,101003.91
2022-12-20T02:35:39.688Z,100997.69
2022-12-20T02:36:04.899Z,100996.03
2022-12-20T02:36:26.776Z,100991.66
2022-12-20T02:36:48.496Z,101000.53
2022-12-20T02:37:12.068Z,101006.75
2022-12-20T02:37:33.727Z,101007.63
2022-12-20T02:37:57.996Z,101002.50
2022-12-20T02:38:29.101Z,101007.97
2022-12-20T02:38:53.126Z,101007.09
2022-12-20T02:39:17.045Z,101003.56
2022-12-20T02:39:40.849Z,100999.97
2022-12-20T02:40:06.159Z,101007.97
2022-12-20T02:40:33.067Z,101001.84
2022-12-20T02:41:00.287Z,101003.44
2022-12-20T02:41:26.683Z,101006.31
2022-12-20T02:41:53.058Z,101005.56
2022-12-20T02:42:20.104Z,101004.88
2022-12-20T02:42:43.739Z,100997.91
2022-12-20T02:43:31.716Z,101008.56
2022-12-20T02:44:18.354Z,100999.00
2022-12-20T02:45:03.317Z,100994.66
2022-12-20T02:45:33.810Z,100999.22
2022-12-20T02:45:58.833Z,100993.13
2022-12-20T02:46:23.528Z,100993.34
2022-12-20T02:46:49.952Z,100994.31
2022-12-20T02:47:16.836Z,100991.56
2022-12-20T02:47:45.736Z,100987.09
2022-12-20T02:48:11.974Z,100983.78
2022-12-20T02:48:37.341Z,100986.31
2022-12-20T02:49:04.902Z,100984.56
2022-12-20T02:49:30.669Z,100986.69
2022-12-20T02:49:55.719Z,100984.03
2022-12-20T02:50:21.778Z,100979.63
2022-12-20T02:50:49.633Z,100983.25
2022-12-20T02:51:12.703Z,100991.19
2022-12-20T02:51:36.007Z,100983.25
2022-12-20T02:52:01.032Z,100981.56
2022-12-20T02:52:27.784Z,100984.25
2022-12-20T02:52:50.767Z,100981.63
2022-12-20T02:53:14.344Z,100984.19
2022-12-20T02:53:42.710Z,100983.31
2022-12-20T02:54:07.875Z,100976.50
2022-12-20T02:54:30.212Z,100989.78
2022-12-20T02:54:53.392Z,100990.75
2022-12-20T02:55:15.817Z,100984.66
2022-12-20T02:55:42.770Z,100993.56
2022-12-20T02:56:13.011Z,100987.31
2022-12-20T02:56:39.582Z,101005.06
2022-12-20T02:57:06.540Z,100993.59
2022-12-20T02:57:37.022Z,100993.66
2022-12-20T02:58:03.014Z,100999.97
2022-12-20T02:58:31.677Z,101002.47
2022-12-20T02:59:01.652Z,100997.00
2022-12-20T02:59:26.190Z,100997.81
2022-12-20T02:59:55.619Z,100996.91
2022-12-20T03:00:21.361Z,101002.13
2022-12-20T03:00:48.910Z,100999.66
2022-12-20T03:01:16.513Z,100999.56
2022-12-20T03:01:43.669Z,100996.19
2022-12-20T03:02:06.941Z,100997.88
2022-12-20T03:02:29.700Z,100995.09
2022-12-20T03:03:11.084Z,100998.53
2022-12-20T03:03:34.996Z,100995.91
2022-12-20T03:03:58.129Z,100997.00
2022-12-20T03:04:25.572Z,100995.97
2022-12-20T03:04:49.259Z,101003.94
2022-12-20T03:05:12.832Z,100998.56
2022-12-20T03:05:43.814Z,100997.75
2022-12-20T03:06:09.034Z,101004.19
2022-12-20T03:06:34.637Z,101000.47
2022-12-20T03:06:59.348Z,100999.56
2022-12-20T03:07:21.515Z,101002.13
2022-12-20T03:07:44.131Z,101002.13
2022-12-20T03:08:07.078Z,101000.69
2022-12-20T03:08:29.905Z,100998.72
2022-12-20T03:08:52.528Z,100996.28
2022-12-20T03:09:19.335Z,100995.31
2022-12-20T03:09:45.862Z,100991.66
2022-12-20T03:10:11.749Z,100992.72
2022-12-20T03:10:34.747Z,100987.31
2022-12-20T03:10:56.965Z,100992.84
2022-12-20T03:11:20.312Z,100981.88
2022-12-20T03:11:41.970Z,100983.28
2022-12-20T03:12:05.143Z,100977.22
2022-12-20T03:12:30.292Z,100982.25
2022-12-20T03:12:52.409Z,100983.28
2022-12-20T03:13:15.291Z,100984.00
2022-12-20T03:13:43.769Z,100979.28
2022-12-20T03:14:05.497Z,100970.47
2022-12-20T03:14:29.799Z,100979.19
2022-12-20T03:14:53.719Z,100962.44
2022-12-20T03:15:16.757Z,100987.09
2022-12-20T03:15:39.961Z,100982.56
2022-12-20T03:16:04.105Z,100973.75
2022-12-20T03:16:25.821Z,100985.16
2022-12-20T03:16:47.682Z,100980.69
2022-12-20T03:17:09.471Z,100980.78
2022-12-20T03:17:33.058Z,100977.22
2022-12-20T03:17:55.717Z,100979.81
2022-12-20T03:18:17.724Z,100985.16
2022-12-20T03:18:39.743Z,100978.09
2022-12-20T03:19:01.482Z,100977.22
2022-12-20T03:19:24.273Z,100984.38
2022-12-20T03:19:45.921Z,100983.44
2022-12-20T03:20:08.939Z,100974.50
2022-12-20T03:20:30.715Z,100978.97
2022-12-20T03:20:53.351Z,100981.53
2022-12-20T03:21:15.022Z,100982.34
2022-12-20T03:21:36.763Z,100976.16
2022-12-20T03:21:58.640Z,100976.16
2022-12-20T03:22:21.734Z,100980.66
2022-12-20T03:22:43.400Z,100978.97
2022-12-20T03:23:05.156Z,100975.38
2022-12-20T03:23:26.967Z,100978.09
2022-12-20T03:23:48.690Z,100974.50
2022-12-20T03:24:13.584Z,100971.78
2022-12-20T03:24:35.256Z,100971.84
2022-12-20T03:25:01.877Z,100977.16
2022-12-20T03:25:25.334Z,100976.19
2022-12-20T03:25:47.927Z,100973.50
2022-12-20T03:26:17.353Z,100977.88
2022-12-20T03:26:43.588Z,100973.53
2022-12-20T03:27:05.208Z,100977.88
2022-12-20T03:27:28.830Z,100964.50
2022-12-20T03:27:51.918Z,100977.88
2022-12-20T03:28:13.799Z,100976.97
2022-12-20T03:28:35.524Z,100982.13
2022-12-20T03:28:58.154Z,100973.25
2022-12-20T03:29:22.236Z,100975.88
2022-12-20T03:29:45.885Z,100979.41
2022-12-20T03:30:08.789Z,100979.31
2022-12-20T03:30:33.470Z,100974.00
2022-12-20T03:30:55.157Z,100972.22
2022-12-20T03:31:18.336Z,100981.94
2022-12-20T03:31:45.281Z,100978.41
2022-12-20T03:32:07.961Z,100981.06
2022-12-20T03:32:29.541Z,100979.28
2022-12-20T03:32:51.215Z,100974.78
2022-12-20T03:33:13.042Z,100968.72
2022-12-20T03:33:36.474Z,100979.25
2022-12-20T03:34:01.334Z,100978.53
2022-12-20T03:34:23.173Z,100975.09
2022-12-20T03:34:44.843Z,100983.06
2022-12-20T03:35:07.852Z,100983.00
2022-12-20T03:35:33.867Z,100983.88
2022-12-20T03:35:55.568Z,100988.22
2022-12-20T03:36:17.537Z,100978.41
2022-12-20T03:36:39.160Z,100979.38
2022-12-20T03:37:02.221Z,100973.97
2022-12-20T03:37:24.031Z,100978.50
2022-12-20T03:37:45.729Z,100980.28
2022-12-20T03:38:07.539Z,100974.97
2022-12-20T03:38:30.184Z,100973.97
2022-12-20T03:38:53.165Z,100977.53
2022-12-20T03:39:17.361Z,100975.00
2022-12-20T03:39:39.355Z,100967.13
2022-12-20T03:40:05.257Z,100987.34
2022-12-20T03:40:27.308Z,100969.75
2022-12-20T03:40:49.229Z,100962.69
2022-12-20T03:41:15.617Z,100981.16
2022-12-20T03:41:37.638Z,100978.50
2022-12-20T03:42:00.379Z,100976.72
2022-12-20T03:42:22.241Z,100981.19
2022-12-20T03:42:44.915Z,100982.06
2022-12-20T03:43:06.626Z,100980.28
2022-12-20T03:43:28.324Z,100977.75
2022-12-20T03:43:50.446Z,100983.97
2022-12-20T03:44:12.313Z,100984.06
2022-12-20T03:44:35.594Z,100982.34
2022-12-20T03:44:58.146Z,100985.06
2022-12-20T03:45:22.472Z,100982.41
2022-12-20T03:45:45.365Z,100985.97
2022-12-20T03:46:08.048Z,100984.31
2022-12-20T03:46:34.657Z,100982.56
2022-12-20T03:46:58.006Z,100997.66
2022-12-20T03:47:20.680Z,100990.59
2022-12-20T03:47:43.017Z,100998.63
2022-12-20T03:48:05.020Z,100997.75
2022-12-20T03:48:27.734Z,101005.81
2022-12-20T03:48:50.344Z,101000.56
2022-12-20T03:49:12.195Z,101002.31
2022-12-20T03:49:40.359Z,100997.91
2022-12-20T03:50:02.059Z,101008.56
2022-12-20T03:50:27.293Z,101007.72
2022-12-20T03:50:49.951Z,101007.75
2022-12-20T03:51:11.904Z,101001.59
2022-12-20T03:51:33.947Z,101002.50
2022-12-20T03:51:56.507Z,101007.91
2022-12-20T03:52:18.563Z,100994.63
2022-12-20T03:52:41.198Z,100995.50
2022-12-20T03:53:03.457Z,101000.88
2022-12-20T03:53:25.490Z,101007.13
2022-12-20T03:53:47.148Z,101008.94
2022-12-20T03:54:09.612Z,101008.06
2022-12-20T03:54:50.679Z,101008.13
2022-12-20T03:55:15.523Z,100999.25
2022-12-20T03:55:40.818Z,101002.78
2022-12-20T03:56:06.447Z,101000.22
2022-12-20T03:56:29.025Z,101002.03
2022-12-20T03:56:50.758Z,100996.78
2022-12-20T03:57:12.925Z,100999.34
2022-12-20T03:57:35.019Z,100993.19
2022-12-20T03:57:58.123Z,100998.56
2022-12-20T03:58:25.055Z,100996.00
2022-12-20T03:58:46.855Z,100996.00
2022-12-20T03:59:10.216Z,100998.72
2022-12-20T03:59:31.928Z,100996.94
2022-12-20T03:59:55.742Z,100996.13
2022-12-20T04:00:18.289Z,100997.91
2022-12-20T04:00:42.415Z,101003.28
2022-12-20T04:01:27.679Z,100990.16
2022-12-20T04:01:51.843Z,101002.50
2022-12-20T04:02:13.751Z,100997.19
2022-12-20T04:02:35.922Z,101005.09
2022-12-20T04:02:59.274Z,100998.88
2022-12-20T04:03:21.610Z,101009.50
2022-12-20T04:03:44.282Z,101003.28
2022-12-20T04:04:06.299Z,101006.06
2022-12-20T04:04:29.609Z,100998.88
2022-12-20T04:04:51.274Z,101001.59
2022-12-20T04:05:13.085Z,101013.09
2022-12-20T04:05:34.888Z,101005.09
2022-12-20T04:05:57.769Z,101002.44
2022-12-20T04:06:19.553Z,101002.31
2022-12-20T04:06:41.436Z,101003.16
2022-12-20T04:07:03.328Z,101009.34
2022-12-20T04:07:27.741Z,100997.84
2022-12-20T04:07:49.871Z,101002.31
2022-12-20T04:08:11.926Z,101009.31
2022-12-20T04:08:34.774Z,101007.56
2022-12-20T04:08:57.492Z,101010.31
2022-12-20T04:09:24.346Z,101012.13
2022-12-20T04:09:51.574Z,101012.13
2022-12-20T04:10:13.592Z,101008.72
2022-12-20T04:10:57.315Z,101013.16
2022-12-20T04:11:23.835Z,101004.25
2022-12-20T04:11:50.553Z,101003.31
2022-12-20T04:12:13.305Z,100997.09
2022-12-20T04:12:35.209Z,100998.09
2022-12-20T04:12:59.271Z,101006.94
2022-12-20T04:13:21.020Z,101010.50
2022-12-20T04:13:43.203Z,101008.59
2022-12-20T04:14:06.658Z,101007.72
2022-12-20T04:14:28.658Z,101010.38
2022-12-20T04:14:50.494Z,101007.72
2022-12-20T04:15:12.305Z,101003.31
2022-12-20T04:15:36.541Z,101005.97
2022-12-20T04:16:00.832Z,101004.16
2022-12-20T04:16:28.865Z,101000.63
2022-12-20T04:16:52.494Z,101005.91
2022-12-20T04:17:18.337Z,101003.13
2022-12-20T04:17:41.529Z,101001.38
2022-12-20T04:18:03.996Z,101000.63
2022-12-20T04:18:25.718Z,100989.09
2022-12-20T04:18:47.964Z,101004.97
2022-12-20T04:19:11.926Z,100996.13
2022-12-20T04:19:39.867Z,100990.97
2022-12-20T04:20:18.786Z,100993.66
2022-12-20T04:20:44.380Z,101004.19
2022-12-20T04:21:16.388Z,101005.97
2022-12-20T04:21:42.226Z,101003.28
2022-12-20T04:22:05.985Z,101004.97
2022-12-20T04:22:42.034Z,100996.16
2022-12-20T04:23:03.946Z,100997.91
2022-12-20T04:23:25.862Z,101001.38
2022-12-20T04:23:47.573Z,100996.13
2022-12-20T04:24:12.254Z,100989.78
2022-12-20T04:24:54.844Z,100995.91
2022-12-20T04:25:26.907Z,100996.06
2022-12-20T04:25:51.199Z,101001.38
2022-12-20T04:26:13.397Z,100991.59
2022-12-20T04:26:35.223Z,100988.06
2022-12-20T04:26:58.274Z,100991.59
2022-12-20T04:27:20.979Z,100988.94
2022-12-20T04:27:44.133Z,100997.72
2022-12-20T04:28:06.031Z,100994.19
2022-12-20T04:28:27.866Z,100994.13
2022-12-20T04:28:51.812Z,100985.25
2022-12-20T04:29:14.878Z,100994.94
2022-12-20T04:29:38.542Z,100988.72
2022-12-20T04:30:03.787Z,100989.59
2022-12-20T04:30:25.877Z,100990.38
2022-12-20T04:30:47.766Z,100985.22
2022-12-20T04:31:20.043Z,100985.34
2022-12-20T04:31:45.991Z,100985.34
2022-12-20T04:32:09.412Z,100984.47
2022-12-20T04:32:34.322Z,100992.41
2022-12-20T04:32:57.157Z,100987.06
2022-12-20T04:33:23.969Z,100982.56
2022-12-20T04:33:46.608Z,100981.69
2022-12-20T04:34:08.741Z,100979.09
2022-12-20T04:34:34.757Z,100969.28
2022-12-20T04:34:56.793Z,100979.84
2022-12-20T04:35:19.905Z,100978.97
2022-12-20T04:35:41.898Z,100978.09
2022-12-20T04:36:04.502Z,100978.97
2022-12-20T04:36:30.804Z,100972.75
2022-12-20T04:36:54.796Z,100973.63
2022-12-20T04:37:30.482Z,100974.56
2022-12-20T04:37:56.715Z,100978.16
2022-12-20T04:38:20.207Z,100978.06
2022-12-20T04:38:48.911Z,100977.22
2022-12-20T04:39:11.447Z,100970.97